Time;durP1;ratioP1;P1;durP2;ratioP2;P2;SDS_P1;SDS_P2;PMS_P1;PMS_P2;Temp;Humidity;BMP_temperature;BMP_pressure;BME280_temperature;BME280_humidity;BME280_pressure;Samples;Min_cycle;Max_cycle;Signal;HPM_P1;HPM_P2
2022/10/04 00:02:13;;;;;;;9.23;3.58;;;15.10;99.90;;;;;;5006825;28;20064;-74
2022/10/04 00:04:50;;;;;;;7.20;3.40;;;15.10;99.90;;;;;;5000757;28;20069;-73
2022/10/04 00:07:22;;;;;;;11.77;2.75;;;15.10;99.90;;;;;;5007513;28;20052;-72
2022/10/04 00:09:56;;;;;;;6.95;2.83;;;15.10;99.90;;;;;;5000122;28;20080;-72
2022/10/04 00:12:28;;;;;;;7.20;2.90;;;15.10;99.90;;;;;;5007792;28;20038;-72
2022/10/04 00:15:00;;;;;;;7.40;2.72;;;15.10;99.90;;;;;;5007362;28;20026;-73
2022/10/04 00:17:30;;;;;;;8.48;2.75;;;15.10;99.90;;;;;;5008287;28;20030;-73
2022/10/04 00:19:57;;;;;;;8.85;3.03;;;15.10;99.90;;;;;;4999474;28;20041;-73
2022/10/04 00:22:25;;;;;;;8.35;2.33;;;15.10;99.90;;;;;;4996357;28;20034;-73
2022/10/04 00:25:06;;;;;;;8.75;2.35;;;15.10;99.90;;;;;;5000612;28;20110;-74
2022/10/04 00:27:33;;;;;;;9.07;3.15;;;15.10;99.90;;;;;;4992830;28;20419;-74
2022/10/04 00:30:01;;;;;;;6.03;2.70;;;15.10;99.90;;;;;;4993888;28;20050;-74
2022/10/04 00:32:46;;;;;;;6.75;2.63;;;15.00;99.90;;;;;;4992836;28;20037;-74
2022/10/04 00:35:24;;;;;;;7.30;2.72;;;15.10;99.90;;;;;;5006902;28;20088;-73
2022/10/04 00:38:06;;;;;;;8.93;2.80;;;15.10;99.90;;;;;;5002337;28;20064;-73
2022/10/04 00:40:40;;;;;;;10.32;2.75;;;15.10;99.90;;;;;;5009452;28;20052;-73
2022/10/04 00:43:32;;;;;;;7.15;3.20;;;15.00;99.90;;;;;;5001922;28;20034;-74
2022/10/04 00:46:22;;;;;;;11.45;3.97;;;15.00;99.90;;;;;;5011218;28;20104;-73
2022/10/04 00:49:01;;;;;;;7.63;2.70;;;15.00;99.90;;;;;;5010763;28;20026;-72
2022/10/04 00:51:38;;;;;;;12.57;3.00;;;15.00;99.90;;;;;;5011451;28;20042;-72
2022/10/04 00:54:29;;;;;;;8.18;2.70;;;15.00;99.90;;;;;;5010100;28;20029;-73
2022/10/04 00:57:02;;;;;;;10.30;3.05;;;14.90;99.90;;;;;;4966431;28;1107361;-74
2022/10/04 00:59:34;;;;;;;6.65;2.67;;;14.90;99.90;;;;;;5011211;28;20030;-72
2022/10/04 01:02:04;;;;;;;7.15;2.72;;;14.90;99.90;;;;;;5010779;28;20422;-73
2022/10/04 01:04:44;;;;;;;8.30;2.80;;;14.90;99.90;;;;;;5008362;28;20058;-73
2022/10/04 01:07:16;;;;;;;9.52;3.20;;;14.90;99.90;;;;;;5009828;28;20091;-73
2022/10/04 01:09:51;;;;;;;6.47;2.70;;;14.90;99.90;;;;;;5008485;28;20042;-73
2022/10/04 01:12:37;;;;;;;8.32;2.90;;;15.00;99.90;;;;;;5011936;28;20509;-74
2022/10/04 01:15:09;;;;;;;12.40;3.03;;;15.00;99.90;;;;;;5011354;28;20034;-73
2022/10/04 01:17:35;;;;;;;18.65;2.85;;;15.00;99.90;;;;;;5010740;28;20389;-74
2022/10/04 01:20:01;;;;;;;6.32;2.70;;;14.90;99.90;;;;;;5009415;28;20028;-74
2022/10/04 01:22:34;;;;;;;8.52;2.70;;;14.90;99.90;;;;;;4993901;28;20038;-73
2022/10/04 01:25:00;;;;;;;9.85;3.25;;;14.90;99.90;;;;;;5009486;28;20577;-74
2022/10/04 01:27:35;;;;;;;8.40;2.85;;;14.90;99.90;;;;;;5011511;28;20088;-74
2022/10/04 01:30:03;;;;;;;8.23;2.70;;;15.00;99.90;;;;;;5011111;28;20046;-74
2022/10/04 01:32:30;;;;;;;7.47;2.53;;;14.90;99.90;;;;;;5010759;28;20354;-74
2022/10/04 01:34:57;;;;;;;6.18;2.58;;;14.90;99.90;;;;;;4993888;28;20035;-73
2022/10/04 01:37:23;;;;;;;8.75;2.70;;;14.90;99.90;;;;;;4998161;28;20089;-73
2022/10/04 01:39:48;;;;;;;7.82;2.55;;;14.90;99.90;;;;;;4992135;28;20030;-73
2022/10/04 01:42:49;;;;;;;8.05;2.33;;;14.80;99.90;;;;;;5007423;28;20048;-72
2022/10/04 01:45:36;;;;;;;9.40;3.47;;;14.70;99.90;;;;;;4969894;28;20449;-73
2022/10/04 01:48:07;;;;;;;7.68;3.42;;;14.70;99.90;;;;;;5008336;28;20559;-73
2022/10/04 01:50:56;;;;;;;7.97;2.88;;;14.70;99.90;;;;;;5010077;28;20164;-73
2022/10/04 01:53:39;;;;;;;10.77;2.88;;;14.70;99.90;;;;;;5000263;28;20544;-73
2022/10/04 01:56:16;;;;;;;9.77;2.90;;;14.70;99.90;;;;;;4992377;28;20342;-73
2022/10/04 01:58:47;;;;;;;9.52;2.88;;;14.70;99.90;;;;;;5006524;28;20536;-73
2022/10/04 02:01:26;;;;;;;6.82;2.45;;;14.60;99.90;;;;;;5015538;28;20064;-73
2022/10/04 02:04:07;;;;;;;10.80;2.60;;;14.60;99.90;;;;;;5024770;28;20480;-73
2022/10/04 02:06:39;;;;;;;8.82;3.17;;;14.60;99.90;;;;;;5009660;28;20034;-73
2022/10/04 02:09:14;;;;;;;9.68;3.50;;;14.60;99.90;;;;;;5011416;28;20037;-73
2022/10/04 02:11:42;;;;;;;;;;;14.60;99.90;;;;;;5011161;28;20083;-72
2022/10/04 02:14:15;;;;;;;8.55;2.90;;;14.60;99.90;;;;;;5011609;28;19912;-72
2022/10/04 02:16:44;;;;;;;10.98;2.58;;;14.50;99.90;;;;;;5013324;28;20497;-73
2022/10/04 02:19:11;;;;;;;6.57;2.90;;;14.60;99.90;;;;;;4993176;28;20061;-73
2022/10/04 02:21:37;;;;;;;10.02;3.03;;;14.50;99.90;;;;;;4993378;28;20029;-73
2022/10/04 02:24:06;;;;;;;9.63;2.60;;;14.50;99.90;;;;;;5005141;28;20026;-72
2022/10/04 02:26:31;;;;;;;6.03;2.45;;;14.50;99.90;;;;;;4991979;28;20485;-72
2022/10/04 02:28:57;;;;;;;10.63;3.40;;;14.50;99.90;;;;;;4997136;28;20037;-72
2022/10/04 02:34:09;;;;;;;6.90;2.63;;;14.50;99.90;;;;;;5013803;28;20026;-72
2022/10/04 02:36:36;;;;;;;8.60;2.72;;;14.50;99.90;;;;;;5014503;28;20025;-72
2022/10/04 02:39:14;;;;;;;7.38;2.95;;;14.50;99.90;;;;;;5011225;28;20169;-72
2022/10/04 02:41:52;;;;;;;6.70;2.40;;;14.40;99.90;;;;;;5012234;28;20026;-72
2022/10/04 02:44:25;;;;;;;6.22;2.58;;;14.40;99.90;;;;;;5004776;28;20126;-73
2022/10/04 02:47:04;;;;;;;8.63;2.60;;;14.40;99.90;;;;;;5011619;28;20026;-72
2022/10/04 02:49:40;;;;;;;7.43;2.22;;;14.40;99.90;;;;;;5010209;28;20156;-72
2022/10/04 02:52:41;;;;;;;8.20;2.50;;;14.30;99.90;;;;;;5011928;28;20045;-75
2022/10/04 02:55:28;;;;;;;10.27;3.05;;;14.30;99.90;;;;;;4980833;28;20034;-76
2022/10/04 02:57:55;;;;;;;11.90;2.80;;;14.30;99.90;;;;;;5010808;28;20042;-75
2022/10/04 03:00:26;;;;;;;8.20;2.90;;;14.30;99.90;;;;;;4997433;28;20034;-76
2022/10/04 03:03:10;;;;;;;8.70;2.70;;;14.20;99.90;;;;;;5005206;28;20489;-74
2022/10/04 03:05:37;;;;;;;8.05;3.00;;;14.20;99.90;;;;;;5002822;28;20113;-75
2022/10/04 03:08:04;;;;;;;9.85;3.58;;;14.20;99.90;;;;;;5013917;28;20034;-75
2022/10/04 03:10:30;;;;;;;7.75;2.97;;;14.20;99.90;;;;;;5013081;28;20037;-75
2022/10/04 03:12:56;;;;;;;10.48;3.75;;;14.20;99.90;;;;;;5012624;28;20032;-75
2022/10/04 03:15:21;;;;;;;11.45;3.63;;;14.20;99.90;;;;;;5001736;28;20030;-75
2022/10/04 03:17:49;;;;;;;6.75;2.60;;;14.20;99.90;;;;;;5011922;28;20033;-76
2022/10/04 03:20:20;;;;;;;7.95;2.97;;;14.10;99.90;;;;;;5012713;28;20622;-75
2022/10/04 03:22:49;;;;;;;8.77;2.88;;;14.10;99.90;;;;;;5013397;28;20030;-75
2022/10/04 03:25:23;;;;;;;6.88;3.08;;;14.10;99.90;;;;;;4999699;28;20156;-74
2022/10/04 03:27:50;;;;;;;8.77;3.45;;;14.10;99.90;;;;;;5012838;28;20022;-74
2022/10/04 03:30:19;;;;;;;7.50;3.05;;;14.00;99.90;;;;;;5000135;28;20045;-73
2022/10/04 03:32:47;;;;;;;9.90;2.88;;;14.00;99.90;;;;;;4995892;28;20034;-74
2022/10/04 03:35:27;;;;;;;7.00;2.92;;;14.00;99.90;;;;;;5001156;28;20508;-74
2022/10/04 03:37:55;;;;;;;9.68;3.25;;;14.00;99.90;;;;;;5008527;28;20366;-75
2022/10/04 03:40:26;;;;;;;8.55;2.90;;;14.00;99.90;;;;;;4996103;28;20037;-74
2022/10/04 03:42:52;;;;;;;7.63;2.90;;;14.00;99.90;;;;;;5009687;28;20052;-74
2022/10/04 03:45:19;;;;;;;7.40;2.80;;;14.00;99.90;;;;;;5003716;28;20476;-74
2022/10/04 03:47:49;;;;;;;8.32;3.22;;;14.00;99.90;;;;;;5013824;28;20570;-74
2022/10/04 03:50:24;;;;;;;9.50;2.97;;;14.00;99.90;;;;;;4997705;28;20088;-73
2022/10/04 03:52:53;;;;;;;7.28;3.10;;;13.90;99.90;;;;;;5010845;28;20061;-74
2022/10/04 03:55:22;;;;;;;13.88;4.30;;;13.90;99.90;;;;;;5001098;28;20048;-73
2022/10/04 03:57:48;;;;;;;5.88;2.60;;;13.90;99.90;;;;;;5010377;28;20060;-73
2022/10/04 04:00:17;;;;;;;9.75;3.30;;;13.80;99.90;;;;;;4994314;28;20030;-73
2022/10/04 04:03:04;;;;;;;8.27;3.47;;;13.90;99.90;;;;;;5002079;28;20065;-73
2022/10/04 04:05:36;;;;;;;7.50;2.83;;;13.80;99.90;;;;;;5009384;28;20041;-74
2022/10/04 04:08:25;;;;;;;8.23;2.90;;;13.80;99.90;;;;;;5012039;28;20116;-74
2022/10/04 04:10:54;;;;;;;9.43;3.13;;;13.80;99.90;;;;;;5011411;28;20034;-74
2022/10/04 04:13:42;;;;;;;7.65;3.10;;;13.80;99.90;;;;;;5012944;28;20045;-74
2022/10/04 04:16:09;;;;;;;6.72;2.97;;;13.80;99.90;;;;;;5005989;28;20113;-74
2022/10/04 04:18:39;;;;;;;8.82;3.35;;;13.80;99.90;;;;;;5011493;28;20029;-75
2022/10/04 04:21:06;;;;;;;9.15;2.90;;;13.90;99.90;;;;;;4996248;28;20073;-75
2022/10/04 04:23:48;;;;;;;8.45;2.80;;;13.90;99.90;;;;;;4994973;28;20373;-75
2022/10/04 04:26:24;;;;;;;9.85;3.35;;;13.90;99.90;;;;;;5002431;28;20061;-75
2022/10/04 04:28:50;;;;;;;7.43;2.85;;;14.00;99.90;;;;;;5012147;28;20028;-74
2022/10/04 04:31:30;;;;;;;8.43;2.85;;;13.90;99.90;;;;;;4993690;28;20126;-74
2022/10/04 04:33:59;;;;;;;5.93;2.63;;;13.90;99.90;;;;;;5009876;28;20030;-75
2022/10/04 04:36:27;;;;;;;7.07;2.60;;;13.90;99.90;;;;;;4994849;28;20041;-75
2022/10/04 04:41:49;;;;;;;5.78;2.55;;;13.80;99.90;;;;;;5010398;28;20033;-75
2022/10/04 04:44:17;;;;;;;8.85;3.03;;;13.80;99.90;;;;;;5010337;28;20022;-75
2022/10/04 04:46:45;;;;;;;11.35;3.28;;;13.80;99.90;;;;;;5012445;28;20037;-75
2022/10/04 04:49:14;;;;;;;8.40;3.00;;;13.80;99.90;;;;;;5006793;28;20117;-75
2022/10/04 04:51:45;;;;;;;7.18;2.50;;;13.80;99.90;;;;;;4999593;28;20401;-75
2022/10/04 04:54:11;;;;;;;7.80;2.75;;;13.80;99.90;;;;;;5008165;28;20461;-75
2022/10/04 04:56:37;;;;;;;7.70;2.60;;;13.70;99.90;;;;;;5004225;28;20129;-74
2022/10/04 04:59:06;;;;;;;8.90;2.78;;;13.70;99.90;;;;;;5009161;28;20108;-75
2022/10/04 05:01:44;;;;;;;12.15;2.85;;;13.70;99.90;;;;;;4992477;28;20026;-75
2022/10/04 05:04:12;;;;;;;7.15;3.03;;;13.60;99.90;;;;;;5008690;28;20101;-75
2022/10/04 05:06:44;;;;;;;8.90;2.85;;;13.60;99.90;;;;;;5005756;28;20026;-75
2022/10/04 05:09:29;;;;;;;7.07;3.47;;;13.60;99.90;;;;;;5009129;28;20079;-74
2022/10/04 05:12:12;;;;;;;10.18;3.25;;;13.60;99.90;;;;;;5000741;28;20120;-76
2022/10/04 05:14:43;;;;;;;9.75;3.13;;;13.50;99.90;;;;;;5000364;28;20026;-78
2022/10/04 05:17:19;;;;;;;8.35;2.97;;;13.50;99.90;;;;;;4996221;28;20037;-77
2022/10/04 05:19:45;;;;;;;7.40;3.28;;;13.60;99.90;;;;;;5003983;28;20381;-77
2022/10/04 05:22:13;;;;;;;8.48;3.30;;;13.60;99.90;;;;;;4999364;28;20037;-77
2022/10/04 05:24:43;;;;;;;8.68;3.50;;;13.50;99.90;;;;;;4993017;28;20030;-76
2022/10/04 05:27:41;;;;;;;8.65;3.15;;;13.50;99.90;;;;;;5009144;28;20745;-77
2022/10/04 05:30:12;;;;;;;8.75;3.10;;;13.50;99.90;;;;;;5006356;28;20026;-76
2022/10/04 05:33:06;;;;;;;8.85;3.40;;;13.50;99.90;;;;;;5009445;28;20045;-76
2022/10/04 05:36:10;;;;;;;8.88;3.55;;;13.50;99.90;;;;;;4999073;28;20023;-76
2022/10/04 05:38:55;;;;;;;5.53;2.67;;;13.50;99.90;;;;;;4996528;28;20030;-76
2022/10/04 05:41:41;;;;;;;9.27;3.20;;;13.50;99.90;;;;;;5005897;28;20121;-76
2022/10/04 05:44:47;;;;;;;5.32;2.60;;;13.50;99.90;;;;;;4997533;28;20072;-71
2022/10/04 05:47:14;;;;;;;9.82;3.55;;;13.60;99.90;;;;;;4953055;28;20137;-74
2022/10/04 05:49:47;;;;;;;8.35;3.95;;;13.60;99.90;;;;;;5009032;28;20033;-73
2022/10/04 05:52:41;;;;;;;10.32;3.53;;;13.70;99.90;;;;;;5004333;28;20053;-73
2022/10/04 05:55:27;;;;;;;8.55;2.90;;;13.70;99.90;;;;;;5001508;28;20032;-75
2022/10/04 05:58:06;;;;;;;9.90;3.17;;;13.80;99.90;;;;;;4996239;28;20400;-74
2022/10/04 06:01:02;;;;;;;8.63;2.95;;;13.90;99.90;;;;;;5003304;28;20033;-74
2022/10/04 06:03:49;;;;;;;6.88;2.92;;;13.90;99.90;;;;;;5010788;28;20045;-73
2022/10/04 06:06:48;;;;;;;6.95;2.33;;;14.00;99.90;;;;;;5010725;28;20122;-73
2022/10/04 06:09:48;;;;;;;7.28;2.70;;;14.10;99.90;;;;;;5012750;28;20021;-73
2022/10/04 06:12:29;;;;;;;8.43;3.72;;;14.20;99.90;;;;;;5013198;28;20121;-72
2022/10/04 06:15:39;;;;;;;7.65;3.00;;;14.30;99.90;;;;;;4996054;28;20037;-71
2022/10/04 06:18:25;;;;;;;8.77;3.20;;;14.30;99.90;;;;;;5005245;28;20567;-73
2022/10/04 06:21:18;;;;;;;12.43;2.90;;;14.40;99.90;;;;;;5001920;28;20032;-73
2022/10/04 06:24:10;;;;;;;8.07;3.00;;;14.40;99.90;;;;;;5007195;28;20033;-73
2022/10/04 06:26:44;;;;;;;7.15;2.97;;;14.50;99.90;;;;;;4998372;28;20378;-73
2022/10/04 06:29:15;;;;;;;10.50;3.83;;;14.60;99.90;;;;;;5009855;28;20409;-73
2022/10/04 06:32:03;;;;;;;11.85;4.70;;;14.60;99.90;;;;;;5003496;28;20700;-73
2022/10/04 06:34:39;;;;;;;10.05;3.10;;;14.70;99.90;;;;;;5006832;28;20370;-73
2022/10/04 06:37:14;;;;;;;6.85;2.80;;;14.70;99.90;;;;;;5009618;28;20034;-73
2022/10/04 06:40:11;;;;;;;7.88;2.78;;;14.70;99.90;;;;;;5010125;28;20038;-74
2022/10/04 06:43:20;;;;;;;7.32;3.05;;;14.80;99.90;;;;;;5007714;28;20516;-72
2022/10/04 06:46:13;;;;;;;9.60;2.60;;;14.90;99.90;;;;;;4976228;28;20397;-73
2022/10/04 06:49:08;;;;;;;8.90;3.13;;;14.90;99.90;;;;;;5007497;28;20032;-72
2022/10/04 06:52:02;;;;;;;10.05;3.25;;;15.00;99.90;;;;;;5007781;28;20445;-73
2022/10/04 06:54:46;;;;;;;6.97;2.70;;;15.00;99.90;;;;;;5013221;28;20116;-72
2022/10/04 06:57:35;;;;;;;9.20;3.30;;;15.00;99.90;;;;;;4996477;28;20449;-72
2022/10/04 07:00:25;;;;;;;6.88;2.47;;;15.10;99.90;;;;;;5003047;28;22026;-73
2022/10/04 07:02:55;;;;;;;9.07;2.95;;;15.20;99.90;;;;;;5002718;28;20457;-72
2022/10/04 07:05:31;;;;;;;10.98;3.58;;;15.10;99.90;;;;;;5008568;28;20034;-72
2022/10/04 07:08:31;;;;;;;7.95;2.80;;;15.20;99.90;;;;;;5010544;28;20452;-72
2022/10/04 07:11:15;;;;;;;10.38;3.05;;;15.20;99.90;;;;;;5005797;28;20042;-72
2022/10/04 07:13:52;;;;;;;8.50;2.50;;;15.20;99.90;;;;;;5009862;28;20560;-71
2022/10/04 07:16:34;;;;;;;8.63;3.20;;;15.30;99.90;;;;;;5004614;28;20041;-71
2022/10/04 07:19:20;;;;;;;12.88;3.33;;;15.30;99.90;;;;;;5006147;28;20489;-71
2022/10/04 07:21:55;;;;;;;7.45;2.55;;;15.30;99.90;;;;;;4999906;28;20497;-72
2022/10/04 07:24:44;;;;;;;9.00;3.38;;;15.40;99.90;;;;;;4994286;28;20481;-72
2022/10/04 07:27:16;;;;;;;9.38;2.95;;;15.40;99.90;;;;;;4997501;28;20475;-72
2022/10/04 07:29:45;;;;;;;8.10;3.30;;;15.40;99.90;;;;;;5004336;28;20540;-72
2022/10/04 07:32:20;;;;;;;7.40;2.72;;;15.50;99.90;;;;;;4995714;28;20049;-71
2022/10/04 07:35:00;;;;;;;8.30;3.67;;;15.50;99.90;;;;;;4997887;28;20033;-72
2022/10/04 07:37:29;;;;;;;11.93;3.45;;;15.50;99.90;;;;;;4983856;28;20061;-71
2022/10/04 07:40:17;;;;;;;10.13;3.63;;;15.60;99.90;;;;;;4994410;28;20032;-71
2022/10/04 07:42:43;;;;;;;9.60;2.83;;;15.60;99.90;;;;;;5003694;28;20038;-71
2022/10/04 07:45:24;;;;;;;8.80;3.30;;;15.70;99.90;;;;;;5012554;28;20018;-71
2022/10/04 07:47:49;;;;;;;9.20;3.10;;;15.70;99.90;;;;;;5007707;28;20038;-71
2022/10/04 07:50:30;;;;;;;9.07;3.80;;;15.70;99.90;;;;;;4993056;28;20048;-71
2022/10/04 07:53:07;;;;;;;11.85;3.80;;;15.70;99.90;;;;;;4994555;28;20034;-70
2022/10/04 07:55:41;;;;;;;11.52;3.58;;;15.80;99.90;;;;;;5012769;28;20061;-71
2022/10/04 07:58:45;;;;;;;11.18;3.67;;;15.80;99.90;;;;;;5013193;28;20053;-72
2022/10/04 08:01:37;;;;;;;9.82;4.45;;;15.80;99.90;;;;;;4991978;28;20041;-70
2022/10/04 08:04:27;;;;;;;8.63;3.58;;;15.80;99.90;;;;;;4991171;28;20034;-68
2022/10/04 08:06:55;;;;;;;9.80;4.03;;;15.80;99.90;;;;;;4994405;28;20037;-70
2022/10/04 08:09:24;;;;;;;10.63;3.75;;;15.90;99.90;;;;;;4995713;28;20030;-70
2022/10/04 08:12:12;;;;;;;8.77;4.20;;;15.90;99.90;;;;;;5005940;28;20038;-70
2022/10/04 08:15:07;;;;;;;12.63;3.92;;;15.90;99.90;;;;;;5015857;28;20040;-71
2022/10/04 08:17:51;;;;;;;11.47;4.07;;;16.00;99.80;;;;;;5005472;28;20076;-71
2022/10/04 08:20:55;;;;;;;9.15;4.03;;;15.90;99.80;;;;;;4997580;28;20284;-71
2022/10/04 08:23:31;;;;;;;8.77;4.45;;;15.90;99.80;;;;;;4995626;28;20045;-70
2022/10/04 08:26:12;;;;;;;9.45;4.20;;;15.90;99.70;;;;;;5010018;28;20029;-71
2022/10/04 08:32:06;;;;;;;8.05;4.10;;;16.10;99.80;;;;;;5013676;28;20526;-71
2022/10/04 08:34:45;;;;;;;7.78;4.10;;;16.20;99.80;;;;;;5011365;28;20156;-72
2022/10/04 08:37:27;;;;;;;6.78;4.25;;;16.30;99.80;;;;;;5008730;28;20052;-71
2022/10/04 08:40:10;;;;;;;8.75;4.22;;;16.50;99.70;;;;;;5011166;28;20033;-71
2022/10/04 08:42:55;;;;;;;5.63;3.92;;;16.50;99.50;;;;;;4995441;28;20034;-71
2022/10/04 08:45:31;;;;;;;7.35;4.18;;;16.50;99.40;;;;;;5005712;28;20042;-71
2022/10/04 08:48:45;;;;;;;7.60;4.40;;;16.60;99.10;;;;;;5011641;28;20045;-69
2022/10/04 08:51:32;;;;;;;8.25;4.75;;;16.70;99.10;;;;;;5003351;28;20037;-70
2022/10/04 08:54:34;;;;;;;9.27;4.28;;;16.70;98.90;;;;;;4992762;28;20033;-70
2022/10/04 08:57:14;;;;;;;8.48;4.93;;;16.70;99.00;;;;;;4999149;28;20038;-70
2022/10/04 09:00:12;;;;;;;8.82;5.20;;;16.70;98.90;;;;;;5012663;28;20029;-70
2022/10/04 09:03:25;;;;;;;7.43;4.72;;;16.80;98.80;;;;;;5007514;28;20048;-70
2022/10/04 09:06:18;;;;;;;8.90;4.75;;;16.80;98.70;;;;;;5008858;28;20025;-70
2022/10/04 09:09:22;;;;;;;8.52;4.85;;;16.80;98.50;;;;;;4997094;28;20030;-70
2022/10/04 09:12:10;;;;;;;7.85;4.30;;;16.90;98.50;;;;;;5007382;28;20038;-70
2022/10/04 09:14:37;;;;;;;11.55;4.50;;;17.00;98.50;;;;;;5007672;28;20021;-70
2022/10/04 09:17:38;;;;;;;6.93;3.67;;;17.00;98.40;;;;;;5010558;28;20131;-70
2022/10/04 09:20:32;;;;;;;9.45;4.35;;;17.10;98.40;;;;;;5013187;28;20141;-70
2022/10/04 09:23:16;;;;;;;9.77;3.40;;;17.20;98.20;;;;;;5009472;28;20472;-69
2022/10/04 09:26:14;;;;;;;5.97;3.03;;;17.20;97.90;;;;;;5007696;28;20120;-69
2022/10/04 09:29:19;;;;;;;5.95;3.15;;;17.30;97.80;;;;;;5009559;28;20037;-69
2022/10/04 09:32:22;;;;;;;7.13;3.08;;;17.30;97.60;;;;;;4984997;28;20128;-70
2022/10/04 09:35:23;;;;;;;5.47;2.85;;;17.30;97.40;;;;;;5011444;28;20084;-69
2022/10/04 09:38:26;;;;;;;6.30;3.67;;;17.30;97.40;;;;;;5011894;28;20037;-69
2022/10/04 09:41:13;;;;;;;5.50;3.10;;;17.30;96.90;;;;;;5013212;28;20037;-69
2022/10/04 09:43:42;;;;;;;5.47;3.03;;;17.30;97.30;;;;;;4996249;28;20077;-69
2022/10/04 09:46:34;;;;;;;4.38;2.70;;;17.30;97.40;;;;;;4999639;28;20029;-69
2022/10/04 09:49:21;;;;;;;6.60;3.40;;;17.40;97.30;;;;;;5001902;28;20037;-73
2022/10/04 09:52:11;;;;;;;8.80;3.40;;;17.50;97.20;;;;;;5004463;28;20042;-62
2022/10/04 09:54:56;;;;;;;6.30;2.78;;;17.70;97.50;;;;;;5003117;28;20096;-70
2022/10/04 09:57:41;;;;;;;5.30;2.30;;;17.70;97.10;;;;;;5006603;28;20035;-69
2022/10/04 10:00:13;;;;;;;5.32;2.70;;;17.80;97.10;;;;;;5008354;28;20113;-69
2022/10/04 10:03:00;;;;;;;7.40;2.78;;;17.90;96.90;;;;;;5011136;28;20026;-69
2022/10/04 10:05:42;;;;;;;4.13;2.35;;;17.90;96.60;;;;;;5012837;28;20080;-70
2022/10/04 10:08:27;;;;;;;5.22;1.80;;;17.80;96.30;;;;;;5018541;28;20037;-68
2022/10/04 10:14:12;;;;;;;4.97;2.22;;;17.70;96.10;;;;;;5014542;28;20124;-69
2022/10/04 10:16:52;;;;;;;5.88;2.28;;;17.70;96.20;;;;;;5013466;28;20038;-69
2022/10/04 10:19:40;;;;;;;5.93;2.25;;;17.80;96.20;;;;;;5014425;28;20088;-69
2022/10/04 10:22:37;;;;;;;6.88;2.30;;;17.80;96.20;;;;;;5007435;28;20032;-69
2022/10/04 10:25:38;;;;;;;6.18;2.63;;;17.90;96.40;;;;;;5003444;28;20080;-70
2022/10/04 10:28:42;;;;;;;4.90;2.42;;;18.00;96.40;;;;;;4996214;28;20044;-69
2022/10/04 10:31:37;;;;;;;4.68;2.72;;;18.10;95.90;;;;;;4977705;28;20560;-69
2022/10/04 10:34:19;;;;;;;6.55;2.50;;;18.10;96.10;;;;;;5004982;28;20022;-69
2022/10/04 10:37:03;;;;;;;5.28;2.47;;;18.20;96.30;;;;;;5013250;28;21506;-69
2022/10/04 10:40:20;;;;;;;3.80;2.40;;;18.30;96.40;;;;;;5003067;28;20026;-70
2022/10/04 10:43:19;;;;;;;4.75;2.67;;;18.40;96.30;;;;;;4924131;29;20082;-70
2022/10/04 10:46:30;;;;;;;5.15;2.30;;;18.40;96.20;;;;;;4918346;29;20110;-69
2022/10/04 10:49:01;;;;;;;7.57;2.90;;;18.40;96.00;;;;;;5014554;28;20053;-71
2022/10/04 10:51:59;;;;;;;4.78;2.47;;;18.50;95.70;;;;;;5011262;28;20030;-71
2022/10/04 10:54:37;;;;;;;6.72;2.60;;;18.60;95.60;;;;;;5002718;28;20100;-74
2022/10/04 10:57:16;;;;;;;5.32;3.00;;;18.60;95.60;;;;;;5014589;28;20045;-73
2022/10/04 10:59:49;;;;;;;6.15;2.50;;;18.60;95.60;;;;;;5008444;28;20102;-73
2022/10/04 11:02:15;;;;;;;5.55;2.58;;;18.60;95.50;;;;;;4998634;28;20038;-73
2022/10/04 11:04:58;;;;;;;9.27;4.28;;;18.60;95.70;;;;;;5025956;28;20380;-74
2022/10/04 11:07:42;;;;;;;10.13;6.10;;;18.60;95.70;;;;;;5005660;28;20109;-70
2022/10/04 11:10:45;;;;;;;26.70;14.23;;;18.70;95.70;;;;;;5008337;28;20029;-72
2022/10/04 11:13:43;;;;;;;16.98;10.75;;;18.80;95.50;;;;;;4994735;28;20044;-69
2022/10/04 11:16:45;;;;;;;10.63;5.15;;;18.80;95.40;;;;;;5001314;28;20141;-70
2022/10/04 11:19:48;;;;;;;6.80;2.78;;;18.90;95.40;;;;;;4994631;28;20043;-71
2022/10/04 11:22:19;;;;;;;6.05;2.92;;;18.90;95.20;;;;;;4996765;28;20026;-71
2022/10/04 11:25:06;;;;;;;7.72;3.22;;;19.00;95.20;;;;;;5003509;28;20037;-71
2022/10/04 11:27:48;;;;;;;5.32;2.55;;;19.10;95.20;;;;;;4999462;28;20473;-70
2022/10/04 11:30:23;;;;;;;7.70;3.22;;;19.10;95.00;;;;;;5014517;28;20034;-71
2022/10/04 11:33:08;;;;;;;;;;;19.10;95.00;;;;;;5012545;28;20062;-71
2022/10/04 11:35:44;;;;;;;6.22;2.17;;;19.10;95.20;;;;;;4995770;28;19917;-71
2022/10/04 11:38:51;;;;;;;5.20;2.63;;;19.10;95.00;;;;;;5013653;28;20058;-71
2022/10/04 11:41:44;;;;;;;17.38;3.72;;;19.20;95.10;;;;;;4976581;28;20069;-71
2022/10/04 11:44:40;;;;;;;6.55;2.53;;;19.20;95.00;;;;;;5011712;28;20038;-71
2022/10/04 11:47:27;;;;;;;7.55;2.70;;;19.30;94.90;;;;;;5011329;28;20053;-71
2022/10/04 11:50:27;;;;;;;7.07;3.20;;;19.30;94.80;;;;;;5013136;28;20026;-72
2022/10/04 11:53:04;;;;;;;5.93;2.35;;;19.40;94.70;;;;;;5013711;28;20129;-72
2022/10/04 11:55:53;;;;;;;7.35;2.55;;;19.40;94.30;;;;;;5012366;28;20053;-72
2022/10/04 11:58:33;;;;;;;7.35;3.00;;;19.40;94.40;;;;;;5004834;28;20117;-72
2022/10/04 12:01:30;;;;;;;6.07;2.30;;;19.30;94.50;;;;;;5013043;28;20104;-71
2022/10/04 12:04:03;;;;;;;5.00;2.30;;;19.30;94.30;;;;;;5011490;28;20275;-71
2022/10/04 12:06:46;;;;;;;5.43;2.22;;;19.20;94.30;;;;;;5003812;28;20022;-71
2022/10/04 12:09:40;;;;;;;6.70;2.75;;;19.20;94.20;;;;;;4995972;28;22217;-71
2022/10/04 12:15:17;;;;;;;4.57;2.10;;;19.10;94.20;;;;;;5005298;28;20428;-71
2022/10/04 12:17:58;;;;;;;8.00;2.20;;;19.10;94.50;;;;;;5006463;28;20819;-71
2022/10/04 12:20:30;;;;;;;5.72;2.88;;;19.00;94.40;;;;;;5011202;28;20433;-71
2022/10/04 12:23:09;;;;;;;7.88;2.78;;;19.10;94.40;;;;;;5003870;28;20075;-71
2022/10/04 12:26:06;;;;;;;7.90;2.53;;;19.00;94.50;;;;;;5004607;28;20671;-71
2022/10/04 12:29:09;;;;;;;6.97;2.13;;;19.10;94.50;;;;;;5008445;28;20034;-72
2022/10/04 12:31:43;;;;;;;5.38;1.98;;;19.10;94.30;;;;;;4994523;28;20401;-71
2022/10/04 12:34:15;;;;;;;;;;;19.20;94.30;;;;;;5005975;28;20095;-71
2022/10/04 12:37:19;;;;;;;5.80;2.17;;;19.30;94.60;;;;;;4991889;28;20283;-71
2022/10/04 12:40:18;;;;;;;6.28;1.92;;;19.30;94.10;;;;;;4975186;28;20026;-72
2022/10/04 12:42:53;;;;;;;7.30;2.53;;;19.30;93.80;;;;;;4993650;28;20486;-72
2022/10/04 12:45:51;;;;;;;7.28;3.10;;;19.30;93.80;;;;;;4997243;28;20049;-72
2022/10/04 12:48:27;;;;;;;5.15;2.22;;;19.40;93.60;;;;;;5005557;28;20504;-72
2022/10/04 12:51:20;;;;;;;5.80;1.80;;;19.30;93.50;;;;;;5010466;28;20037;-71
2022/10/04 12:53:51;;;;;;;7.55;2.63;;;19.30;93.30;;;;;;4992971;28;20631;-72
2022/10/04 12:56:37;;;;;;;6.38;2.17;;;19.20;93.30;;;;;;5010038;28;20129;-72
2022/10/04 12:59:30;;;;;;;6.05;1.88;;;19.20;93.50;;;;;;4993010;28;20556;-72
2022/10/04 13:02:07;;;;;;;6.28;2.13;;;19.30;93.50;;;;;;4993768;28;20109;-71
2022/10/04 13:04:58;;;;;;;7.43;2.42;;;19.30;93.60;;;;;;5009594;28;20132;-72
2022/10/04 13:07:32;;;;;;;10.05;2.88;;;19.30;93.60;;;;;;4998569;28;20033;-73
2022/10/04 13:10:22;;;;;;;4.93;1.85;;;19.30;93.40;;;;;;4978679;28;20037;-71
2022/10/04 13:13:29;;;;;;;6.40;2.58;;;19.40;93.50;;;;;;5007676;28;20052;-72
2022/10/04 13:16:44;;;;;;;3.47;1.92;;;19.40;93.60;;;;;;5013252;28;20033;-73
2022/10/04 13:19:31;;;;;;;5.45;2.28;;;19.50;93.60;;;;;;4912420;29;20138;-71
2022/10/04 13:22:21;;;;;;;4.63;2.33;;;19.50;93.40;;;;;;4912392;29;20028;-72
2022/10/04 13:24:57;;;;;;;6.75;2.30;;;19.60;93.20;;;;;;4978001;28;20046;-70
2022/10/04 13:27:37;;;;;;;5.15;2.30;;;19.60;93.10;;;;;;4993761;28;20065;-72
2022/10/04 13:30:23;;;;;;;9.02;2.65;;;19.70;93.10;;;;;;4977211;28;20041;-72
2022/10/04 13:33:03;;;;;;;6.35;2.72;;;19.70;93.00;;;;;;5001266;28;20129;-72
2022/10/04 13:35:56;;;;;;;4.95;1.90;;;19.70;93.20;;;;;;4998867;28;20034;-72
2022/10/04 13:38:25;;;;;;;4.45;1.80;;;19.70;93.20;;;;;;4992925;28;20034;-71
2022/10/04 13:41:02;;;;;;;6.85;2.40;;;19.70;93.10;;;;;;5001618;28;20354;-71
2022/10/04 13:44:16;;;;;;;5.38;1.70;;;19.70;93.10;;;;;;4996690;28;20062;-72
2022/10/04 13:47:06;;;;;;;5.68;2.35;;;19.80;93.10;;;;;;4947133;28;20039;-71
2022/10/04 13:49:55;;;;;;;9.00;2.35;;;19.80;92.90;;;;;;4948383;28;20110;-72
2022/10/04 13:58:40;;;;;;;3.70;1.60;;;20.00;92.00;;;;;;5007806;28;20026;-72
2022/10/04 14:01:25;;;;;;;6.40;2.47;;;20.00;92.10;;;;;;4997151;28;20030;-72
2022/10/04 14:03:51;;;;;;;;;;;20.00;92.10;;;;;;4996464;28;20033;-72
2022/10/04 14:06:49;;;;;;;6.38;1.90;;;20.00;92.40;;;;;;5010220;28;19910;-72
2022/10/04 14:09:54;;;;;;;4.80;1.60;;;20.00;92.30;;;;;;5006391;28;20029;-71
2022/10/04 14:12:48;;;;;;;4.38;1.95;;;20.00;92.10;;;;;;5003555;28;20038;-72
2022/10/04 14:15:49;;;;;;;7.68;2.60;;;20.00;92.40;;;;;;4996845;28;20033;-71
2022/10/04 14:18:47;;;;;;;4.35;2.33;;;20.10;92.40;;;;;;4993563;28;20033;-72
2022/10/04 14:21:58;;;;;;;6.70;2.35;;;20.20;92.10;;;;;;5008078;28;20030;-72